sensor_id;sensor_type;location;lat;lon;timestamp;pressure;altitude;pressure_sealevel;temperature;humidity
62402;BME280;48440;51.224;22.506;2023-02-04T00:01:40;98225.09;;;-0.09;81.20
62402;BME280;48440;51.224;22.506;2023-02-04T00:04:06;98227.78;;;-0.09;81.15
62402;BME280;48440;51.224;22.506;2023-02-04T00:06:31;98242.94;;;-0.03;81.14
62402;BME280;48440;51.224;22.506;2023-02-04T00:08:57;98245.03;;;-0.11;81.17
62402;BME280;48440;51.224;22.506;2023-02-04T00:11:22;98240.09;;;-0.08;80.67
62402;BME280;48440;51.224;22.506;2023-02-04T00:13:48;98249.09;;;-0.02;81.29
62402;BME280;48440;51.224;22.506;2023-02-04T00:16:13;98250.72;;;-0.01;80.85
62402;BME280;48440;51.224;22.506;2023-02-04T00:18:39;98246.84;;;-0.05;81.05
62402;BME280;48440;51.224;22.506;2023-02-04T00:21:04;98252.19;;;-0.05;80.61
62402;BME280;48440;51.224;22.506;2023-02-04T00:23:30;98252.59;;;-0.08;81.20
62402;BME280;48440;51.224;22.506;2023-02-04T00:25:55;98242.94;;;-0.03;80.69
62402;BME280;48440;51.224;22.506;2023-02-04T00:28:21;98254.44;;;-0.09;80.69
62402;BME280;48440;51.224;22.506;2023-02-04T00:30:46;98238.84;;;-0.05;80.21
62402;BME280;48440;51.224;22.506;2023-02-04T00:33:12;98241.13;;;-0.09;80.61
62402;BME280;48440;51.224;22.506;2023-02-04T00:35:38;98234.97;;;-0.09;80.33
62402;BME280;48440;51.224;22.506;2023-02-04T00:38:04;98236.00;;;-0.17;80.83
62402;BME280;48440;51.224;22.506;2023-02-04T00:40:30;98239.72;;;-0.18;80.99
62402;BME280;48440;51.224;22.506;2023-02-04T00:42:56;98251.19;;;-0.17;80.61
62402;BME280;48440;51.224;22.506;2023-02-04T00:45:22;98248.13;;;-0.21;80.91
62402;BME280;48440;51.224;22.506;2023-02-04T00:47:47;98251.00;;;-0.22;80.97
62402;BME280;48440;51.224;22.506;2023-02-04T00:50:12;98256.13;;;-0.21;81.15
62402;BME280;48440;51.224;22.506;2023-02-04T00:52:38;98262.88;;;-0.18;80.62
62402;BME280;48440;51.224;22.506;2023-02-04T00:55:04;98272.31;;;-0.16;80.79
62402;BME280;48440;51.224;22.506;2023-02-04T00:57:31;98264.31;;;-0.16;80.76
62402;BME280;48440;51.224;22.506;2023-02-04T00:59:56;98279.06;;;-0.13;80.92
62402;BME280;48440;51.224;22.506;2023-02-04T01:02:21;98276.41;;;-0.13;80.58
62402;BME280;48440;51.224;22.506;2023-02-04T01:04:50;98274.34;;;-0.11;80.53
62402;BME280;48440;51.224;22.506;2023-02-04T01:07:16;98283.38;;;-0.12;80.07
62402;BME280;48440;51.224;22.506;2023-02-04T01:09:41;98292.41;;;-0.13;80.33
62402;BME280;48440;51.224;22.506;2023-02-04T01:12:07;98288.31;;;-0.16;80.32
62402;BME280;48440;51.224;22.506;2023-02-04T01:14:32;98294.88;;;-0.18;80.16
62402;BME280;48440;51.224;22.506;2023-02-04T01:16:58;98300.22;;;-0.12;80.05
62402;BME280;48440;51.224;22.506;2023-02-04T01:19:23;98303.91;;;-0.13;79.88
62402;BME280;48440;51.224;22.506;2023-02-04T01:21:49;98304.94;;;-0.14;79.99
62402;BME280;48440;51.224;22.506;2023-02-04T01:24:14;98309.03;;;-0.11;79.60
62402;BME280;48440;51.224;22.506;2023-02-04T01:26:40;98310.25;;;-0.14;79.61
62402;BME280;48440;51.224;22.506;2023-02-04T01:29:05;98316.22;;;-0.18;79.35
62402;BME280;48440;51.224;22.506;2023-02-04T01:31:31;98321.56;;;-0.18;79.22
62402;BME280;48440;51.224;22.506;2023-02-04T01:33:58;98336.34;;;-0.22;78.71
62402;BME280;48440;51.224;22.506;2023-02-04T01:36:23;98348.06;;;-0.30;79.31
62402;BME280;48440;51.224;22.506;2023-02-04T01:38:49;98343.13;;;-0.33;78.86
62402;BME280;48440;51.224;22.506;2023-02-04T01:41:15;98360.97;;;-0.33;79.17
62402;BME280;48440;51.224;22.506;2023-02-04T01:43:41;98369.19;;;-0.35;78.43
62402;BME280;48440;51.224;22.506;2023-02-04T01:46:07;98365.69;;;-0.36;78.81
62402;BME280;48440;51.224;22.506;2023-02-04T01:48:32;98377.81;;;-0.40;78.65
62402;BME280;48440;51.224;22.506;2023-02-04T01:51:03;98384.97;;;-0.40;78.19
62402;BME280;48440;51.224;22.506;2023-02-04T01:53:30;98391.53;;;-0.43;78.54
62402;BME280;48440;51.224;22.506;2023-02-04T01:55:56;98397.06;;;-0.44;78.44
62402;BME280;48440;51.224;22.506;2023-02-04T01:58:21;98398.31;;;-0.40;78.19
62402;BME280;48440;51.224;22.506;2023-02-04T02:00:47;98387.84;;;-0.42;78.14
62402;BME280;48440;51.224;22.506;2023-02-04T02:03:12;98418.00;;;-0.48;78.28
62402;BME280;48440;51.224;22.506;2023-02-04T02:05:40;98409.38;;;-0.50;78.05
62402;BME280;48440;51.224;22.506;2023-02-04T02:08:08;98407.97;;;-0.52;78.60
62402;BME280;48440;51.224;22.506;2023-02-04T02:10:36;98421.69;;;-0.55;78.57
62402;BME280;48440;51.224;22.506;2023-02-04T02:13:03;98410.00;;;-0.61;78.89
62402;BME280;48440;51.224;22.506;2023-02-04T02:15:29;98421.28;;;-0.65;78.92
62402;BME280;48440;51.224;22.506;2023-02-04T02:17:55;98419.03;;;-0.62;79.34
62402;BME280;48440;51.224;22.506;2023-02-04T02:20:23;98427.22;;;-0.63;79.05
62402;BME280;48440;51.224;22.506;2023-02-04T02:22:59;98441.78;;;-0.66;79.30
62402;BME280;48440;51.224;22.506;2023-02-04T02:25:26;98446.28;;;-0.66;79.24
62402;BME280;48440;51.224;22.506;2023-02-04T02:27:52;98438.50;;;-0.68;79.45
62402;BME280;48440;51.224;22.506;2023-02-04T02:30:18;98444.44;;;-0.66;79.16
62402;BME280;48440;51.224;22.506;2023-02-04T02:32:45;98457.97;;;-0.68;79.60
62402;BME280;48440;51.224;22.506;2023-02-04T02:35:11;98467.97;;;-0.76;79.39
62402;BME280;48440;51.224;22.506;2023-02-04T02:37:38;98485.59;;;-0.75;79.45
62402;BME280;48440;51.224;22.506;2023-02-04T02:40:05;98486.03;;;-0.85;79.71
62402;BME280;48440;51.224;22.506;2023-02-04T02:42:31;98479.06;;;-0.79;79.31
62402;BME280;48440;51.224;22.506;2023-02-04T02:44:57;98498.75;;;-0.80;79.13
62402;BME280;48440;51.224;22.506;2023-02-04T02:47:23;98516.56;;;-0.81;79.49
62402;BME280;48440;51.224;22.506;2023-02-04T02:49:51;98512.25;;;-0.82;79.39
62402;BME280;48440;51.224;22.506;2023-02-04T02:52:17;98522.28;;;-0.84;79.06
62402;BME280;48440;51.224;22.506;2023-02-04T02:54:43;98548.75;;;-0.82;79.52
62402;BME280;48440;51.224;22.506;2023-02-04T02:57:15;98549.75;;;-0.83;79.46
62402;BME280;48440;51.224;22.506;2023-02-04T02:59:41;98554.66;;;-0.87;79.58
62402;BME280;48440;51.224;22.506;2023-02-04T03:02:08;98570.84;;;-0.88;79.51
62402;BME280;48440;51.224;22.506;2023-02-04T03:04:38;98566.72;;;-0.91;79.23
62402;BME280;48440;51.224;22.506;2023-02-04T03:07:06;98575.94;;;-0.93;79.64
62402;BME280;48440;51.224;22.506;2023-02-04T03:09:32;98577.34;;;-0.97;79.66
62402;BME280;48440;51.224;22.506;2023-02-04T03:11:57;98569.97;;;-0.95;79.71
62402;BME280;48440;51.224;22.506;2023-02-04T03:14:23;98595.16;;;-0.98;79.74
62402;BME280;48440;51.224;22.506;2023-02-04T03:16:51;98601.09;;;-1.03;80.00
62402;BME280;48440;51.224;22.506;2023-02-04T03:19:18;98604.38;;;-1.00;79.90
62402;BME280;48440;51.224;22.506;2023-02-04T03:21:44;98602.53;;;-1.00;79.74
62402;BME280;48440;51.224;22.506;2023-02-04T03:24:10;98629.56;;;-1.03;79.58
62402;BME280;48440;51.224;22.506;2023-02-04T03:26:35;98637.16;;;-1.00;79.42
62402;BME280;48440;51.224;22.506;2023-02-04T03:29:01;98648.63;;;-0.99;79.88
62402;BME280;48440;51.224;22.506;2023-02-04T03:31:27;98639.00;;;-1.00;79.95
62402;BME280;48440;51.224;22.506;2023-02-04T03:33:52;98660.56;;;-0.95;79.27
62402;BME280;48440;51.224;22.506;2023-02-04T03:36:18;98663.41;;;-0.97;78.70
62402;BME280;48440;51.224;22.506;2023-02-04T03:38:44;98664.03;;;-0.95;78.85
62402;BME280;48440;51.224;22.506;2023-02-04T03:41:09;98661.38;;;-0.95;78.57
62402;BME280;48440;51.224;22.506;2023-02-04T03:43:34;98688.00;;;-0.95;78.41
62402;BME280;48440;51.224;22.506;2023-02-04T03:46:00;98693.16;;;-0.93;77.91
62402;BME280;48440;51.224;22.506;2023-02-04T03:48:25;98708.06;;;-0.99;78.76
62402;BME280;48440;51.224;22.506;2023-02-04T03:50:51;98710.72;;;-0.99;78.52
62402;BME280;48440;51.224;22.506;2023-02-04T03:53:16;98715.03;;;-0.98;78.27
62402;BME280;48440;51.224;22.506;2023-02-04T03:55:41;98735.50;;;-1.05;77.89
62402;BME280;48440;51.224;22.506;2023-02-04T03:58:07;98736.25;;;-1.11;78.23
62402;BME280;48440;51.224;22.506;2023-02-04T04:00:32;98746.91;;;-1.11;78.83
62402;BME280;48440;51.224;22.506;2023-02-04T04:02:58;98745.91;;;-1.10;78.30
62402;BME280;48440;51.224;22.506;2023-02-04T04:05:24;98759.03;;;-1.09;78.31
62402;BME280;48440;51.224;22.506;2023-02-04T04:07:50;98789.91;;;-1.14;78.52
62402;BME280;48440;51.224;22.506;2023-02-04T04:10:15;98764.53;;;-1.10;78.33
62402;BME280;48440;51.224;22.506;2023-02-04T04:12:41;98792.19;;;-1.11;78.03
62402;BME280;48440;51.224;22.506;2023-02-04T04:15:06;98803.91;;;-1.06;78.12
62402;BME280;48440;51.224;22.506;2023-02-04T04:17:32;98825.41;;;-1.07;77.65
62402;BME280;48440;51.224;22.506;2023-02-04T04:19:58;98827.81;;;-1.12;77.42
62402;BME280;48440;51.224;22.506;2023-02-04T04:22:23;98828.66;;;-1.12;77.50
62402;BME280;48440;51.224;22.506;2023-02-04T04:24:49;98839.31;;;-1.12;78.09
62402;BME280;48440;51.224;22.506;2023-02-04T04:27:14;98832.97;;;-1.11;77.85
62402;BME280;48440;51.224;22.506;2023-02-04T04:29:39;98846.09;;;-1.09;77.67
62402;BME280;48440;51.224;22.506;2023-02-04T04:32:05;98865.75;;;-1.10;78.18
62402;BME280;48440;51.224;22.506;2023-02-04T04:34:31;98866.19;;;-1.07;76.94
62402;BME280;48440;51.224;22.506;2023-02-04T04:36:56;98879.25;;;-1.12;77.57
62402;BME280;48440;51.224;22.506;2023-02-04T04:39:21;98894.59;;;-1.14;77.72
62402;BME280;48440;51.224;22.506;2023-02-04T04:41:47;98891.38;;;-1.09;76.82
62402;BME280;48440;51.224;22.506;2023-02-04T04:44:12;98910.19;;;-1.11;76.14
62402;BME280;48440;51.224;22.506;2023-02-04T04:46:38;98923.50;;;-1.11;76.92
62402;BME280;48440;51.224;22.506;2023-02-04T04:49:05;98931.59;;;-1.19;77.07
62402;BME280;48440;51.224;22.506;2023-02-04T04:51:31;98951.19;;;-1.26;75.67
62402;BME280;48440;51.224;22.506;2023-02-04T04:53:57;98954.94;;;-1.21;75.76
62402;BME280;48440;51.224;22.506;2023-02-04T04:56:23;98963.75;;;-1.20;74.88
62402;BME280;48440;51.224;22.506;2023-02-04T04:58:48;98975.03;;;-1.18;75.25
62402;BME280;48440;51.224;22.506;2023-02-04T05:01:14;98988.72;;;-1.21;75.73
62402;BME280;48440;51.224;22.506;2023-02-04T05:03:39;98989.56;;;-1.21;75.58
62402;BME280;48440;51.224;22.506;2023-02-04T05:06:05;99000.56;;;-1.24;75.92
62402;BME280;48440;51.224;22.506;2023-02-04T05:08:30;99018.47;;;-1.18;76.47
62402;BME280;48440;51.224;22.506;2023-02-04T05:10:56;99013.97;;;-1.17;75.13
62402;BME280;48440;51.224;22.506;2023-02-04T05:13:21;99030.59;;;-1.15;74.53
62402;BME280;48440;51.224;22.506;2023-02-04T05:15:49;99039.78;;;-1.18;74.27
62402;BME280;48440;51.224;22.506;2023-02-04T05:18:15;99045.75;;;-1.16;74.36
62402;BME280;48440;51.224;22.506;2023-02-04T05:20:40;99051.63;;;-1.20;73.96
62402;BME280;48440;51.224;22.506;2023-02-04T05:23:05;99063.09;;;-1.20;73.21
62402;BME280;48440;51.224;22.506;2023-02-04T05:25:31;99074.75;;;-1.21;73.11
62402;BME280;48440;51.224;22.506;2023-02-04T05:27:56;99100.09;;;-1.25;72.37
62402;BME280;48440;51.224;22.506;2023-02-04T05:30:22;99087.91;;;-1.19;71.78
62402;BME280;48440;51.224;22.506;2023-02-04T05:32:48;99087.25;;;-1.21;72.02
62402;BME280;48440;51.224;22.506;2023-02-04T05:35:14;99117.72;;;-1.24;70.84
62402;BME280;48440;51.224;22.506;2023-02-04T05:37:39;99123.72;;;-1.22;70.80
62402;BME280;48440;51.224;22.506;2023-02-04T05:40:05;99125.00;;;-1.18;69.77
62402;BME280;48440;51.224;22.506;2023-02-04T05:42:31;99125.34;;;-1.21;69.80
62402;BME280;48440;51.224;22.506;2023-02-04T05:44:57;99149.31;;;-1.21;69.28
62402;BME280;48440;51.224;22.506;2023-02-04T05:47:22;99151.69;;;-1.26;69.13
62402;BME280;48440;51.224;22.506;2023-02-04T05:49:51;99151.69;;;-1.26;69.42
62402;BME280;48440;51.224;22.506;2023-02-04T05:52:16;99152.34;;;-1.24;68.88
62402;BME280;48440;51.224;22.506;2023-02-04T05:54:42;99168.16;;;-1.22;68.74
62402;BME280;48440;51.224;22.506;2023-02-04T05:57:07;99178.31;;;-1.26;68.17
62402;BME280;48440;51.224;22.506;2023-02-04T05:59:33;99187.78;;;-1.23;68.19
62402;BME280;48440;51.224;22.506;2023-02-04T06:01:58;99193.31;;;-1.25;68.26
62402;BME280;48440;51.224;22.506;2023-02-04T06:04:23;99199.16;;;-1.29;68.25
62402;BME280;48440;51.224;22.506;2023-02-04T06:06:49;99213.13;;;-1.27;68.04
62402;BME280;48440;51.224;22.506;2023-02-04T06:09:14;99220.03;;;-1.33;68.21
62402;BME280;48440;51.224;22.506;2023-02-04T06:11:40;99228.53;;;-1.38;67.85
62402;BME280;48440;51.224;22.506;2023-02-04T06:14:05;99245.00;;;-1.34;68.32
62402;BME280;48440;51.224;22.506;2023-02-04T06:16:31;99244.00;;;-1.33;67.66
62402;BME280;48440;51.224;22.506;2023-02-04T06:18:57;99255.28;;;-1.31;67.62
62402;BME280;48440;51.224;22.506;2023-02-04T06:21:22;99270.44;;;-1.31;67.51
62402;BME280;48440;51.224;22.506;2023-02-04T06:23:47;99279.88;;;-1.29;67.44
62402;BME280;48440;51.224;22.506;2023-02-04T06:26:13;99289.78;;;-1.38;67.80
62402;BME280;48440;51.224;22.506;2023-02-04T06:28:38;99298.06;;;-1.32;67.78
62402;BME280;48440;51.224;22.506;2023-02-04T06:31:04;99307.88;;;-1.33;67.79
62402;BME280;48440;51.224;22.506;2023-02-04T06:33:29;99316.06;;;-1.34;67.59
62402;BME280;48440;51.224;22.506;2023-02-04T06:35:58;99318.38;;;-1.31;67.52
62402;BME280;48440;51.224;22.506;2023-02-04T06:38:23;99324.50;;;-1.31;67.34
62402;BME280;48440;51.224;22.506;2023-02-04T06:40:49;99343.59;;;-1.27;66.40
62402;BME280;48440;51.224;22.506;2023-02-04T06:43:17;99347.75;;;-1.25;66.61
62402;BME280;48440;51.224;22.506;2023-02-04T06:45:43;99348.22;;;-1.21;65.66
62402;BME280;48440;51.224;22.506;2023-02-04T06:48:08;99367.69;;;-1.21;65.09
62402;BME280;48440;51.224;22.506;2023-02-04T06:50:34;99377.47;;;-1.13;65.04
62402;BME280;48440;51.224;22.506;2023-02-04T06:52:59;99385.59;;;-1.07;64.64
62402;BME280;48440;51.224;22.506;2023-02-04T06:55:25;99385.41;;;-1.05;63.01
62402;BME280;48440;51.224;22.506;2023-02-04T06:57:50;99389.81;;;-0.97;62.84
62402;BME280;48440;51.224;22.506;2023-02-04T07:00:16;99393.31;;;-0.97;62.71
62402;BME280;48440;51.224;22.506;2023-02-04T07:02:41;99407.75;;;-0.91;63.10
62402;BME280;48440;51.224;22.506;2023-02-04T07:05:07;99427.53;;;-0.86;61.78
62402;BME280;48440;51.224;22.506;2023-02-04T07:07:33;99427.19;;;-0.83;61.39
62402;BME280;48440;51.224;22.506;2023-02-04T07:09:59;99445.31;;;-0.78;61.71
62402;BME280;48440;51.224;22.506;2023-02-04T07:12:24;99444.19;;;-0.84;61.86
62402;BME280;48440;51.224;22.506;2023-02-04T07:14:49;99460.16;;;-0.84;62.11
62402;BME280;48440;51.224;22.506;2023-02-04T07:17:15;99474.81;;;-0.80;61.94
62402;BME280;48440;51.224;22.506;2023-02-04T07:19:40;99469.16;;;-0.85;62.42
62402;BME280;48440;51.224;22.506;2023-02-04T07:22:06;99485.69;;;-0.89;62.03
62402;BME280;48440;51.224;22.506;2023-02-04T07:24:31;99488.00;;;-0.86;61.99
62402;BME280;48440;51.224;22.506;2023-02-04T07:26:56;99488.34;;;-0.89;61.98
62402;BME280;48440;51.224;22.506;2023-02-04T07:29:22;99501.31;;;-0.86;62.88
62402;BME280;48440;51.224;22.506;2023-02-04T07:31:47;99503.34;;;-0.88;62.73
62402;BME280;48440;51.224;22.506;2023-02-04T07:34:16;99522.63;;;-0.86;62.54
62402;BME280;48440;51.224;22.506;2023-02-04T07:36:42;99514.28;;;-0.83;62.52
62402;BME280;48440;51.224;22.506;2023-02-04T07:39:07;99533.88;;;-0.76;62.66
62402;BME280;48440;51.224;22.506;2023-02-04T07:41:33;99548.00;;;-0.68;62.46
62402;BME280;48440;51.224;22.506;2023-02-04T07:43:58;99560.44;;;-0.60;62.97
62402;BME280;48440;51.224;22.506;2023-02-04T07:46:24;99556.78;;;-0.59;62.77
62402;BME280;48440;51.224;22.506;2023-02-04T07:48:50;99567.75;;;-0.54;62.94
62402;BME280;48440;51.224;22.506;2023-02-04T07:51:15;99566.63;;;-0.59;63.23
62402;BME280;48440;51.224;22.506;2023-02-04T07:53:41;99566.91;;;-0.54;63.28
62402;BME280;48440;51.224;22.506;2023-02-04T07:56:07;99584.94;;;-0.56;62.96
62402;BME280;48440;51.224;22.506;2023-02-04T07:58:32;99594.28;;;-0.60;63.46
62402;BME280;48440;51.224;22.506;2023-02-04T08:00:58;99599.25;;;-0.57;62.58
62402;BME280;48440;51.224;22.506;2023-02-04T08:03:23;99604.94;;;-0.60;63.26
62402;BME280;48440;51.224;22.506;2023-02-04T08:05:49;99612.28;;;-0.62;63.79
62402;BME280;48440;51.224;22.506;2023-02-04T08:08:14;99620.75;;;-0.59;63.60
62402;BME280;48440;51.224;22.506;2023-02-04T08:10:41;99616.75;;;-0.55;64.12
62402;BME280;48440;51.224;22.506;2023-02-04T08:13:06;99626.50;;;-0.47;64.30
62402;BME280;48440;51.224;22.506;2023-02-04T08:15:32;99625.28;;;-0.37;64.33
62402;BME280;48440;51.224;22.506;2023-02-04T08:17:57;99627.91;;;-0.28;64.57
62402;BME280;48440;51.224;22.506;2023-02-04T08:20:23;99623.50;;;-0.21;63.91
62402;BME280;48440;51.224;22.506;2023-02-04T08:22:49;99635.31;;;-0.16;63.51
62402;BME280;48440;51.224;22.506;2023-02-04T08:25:14;99634.59;;;-0.10;64.03
62402;BME280;48440;51.224;22.506;2023-02-04T08:27:40;99632.31;;;0.02;63.55
62402;BME280;48440;51.224;22.506;2023-02-04T08:30:06;99650.78;;;0.12;63.25
62402;BME280;48440;51.224;22.506;2023-02-04T08:32:31;99648.41;;;0.17;63.72
62402;BME280;48440;51.224;22.506;2023-02-04T08:34:57;99664.63;;;0.30;63.49
62402;BME280;48440;51.224;22.506;2023-02-04T08:37:23;99663.75;;;0.52;63.04
62402;BME280;48440;51.224;22.506;2023-02-04T08:39:51;99672.81;;;0.66;63.04
62402;BME280;48440;51.224;22.506;2023-02-04T08:42:17;99671.09;;;0.73;63.23
62402;BME280;48440;51.224;22.506;2023-02-04T08:44:43;99683.06;;;0.77;62.63
62402;BME280;48440;51.224;22.506;2023-02-04T08:47:09;99670.34;;;0.64;63.12
62402;BME280;48440;51.224;22.506;2023-02-04T08:49:38;99681.44;;;0.53;63.03
62402;BME280;48440;51.224;22.506;2023-02-04T08:52:03;99679.03;;;0.44;63.99
62402;BME280;48440;51.224;22.506;2023-02-04T08:54:31;99690.84;;;0.49;64.14
62402;BME280;48440;51.224;22.506;2023-02-04T08:56:56;99699.47;;;0.37;64.82
62402;BME280;48440;51.224;22.506;2023-02-04T08:59:21;99709.66;;;0.33;65.15
62402;BME280;48440;51.224;22.506;2023-02-04T09:01:49;99717.94;;;0.23;65.80
62402;BME280;48440;51.224;22.506;2023-02-04T09:04:17;99717.19;;;0.29;65.64
62402;BME280;48440;51.224;22.506;2023-02-04T09:06:43;99728.31;;;0.18;66.09
62402;BME280;48440;51.224;22.506;2023-02-04T09:09:09;99728.00;;;0.13;66.55
62402;BME280;48440;51.224;22.506;2023-02-04T09:11:34;99730.66;;;0.13;66.30
62402;BME280;48440;51.224;22.506;2023-02-04T09:13:59;99741.53;;;0.12;66.91
62402;BME280;48440;51.224;22.506;2023-02-04T09:16:25;99755.38;;;0.07;67.10
62402;BME280;48440;51.224;22.506;2023-02-04T09:18:50;99752.97;;;-0.03;66.90
62402;BME280;48440;51.224;22.506;2023-02-04T09:21:16;99754.16;;;-0.05;66.85
62402;BME280;48440;51.224;22.506;2023-02-04T09:23:41;99763.47;;;-0.01;66.14
62402;BME280;48440;51.224;22.506;2023-02-04T09:26:06;99764.19;;;-0.15;67.05
62402;BME280;48440;51.224;22.506;2023-02-04T09:28:32;99761.88;;;-0.18;67.47
62402;BME280;48440;51.224;22.506;2023-02-04T09:30:57;99755.34;;;-0.16;67.56
62402;BME280;48440;51.224;22.506;2023-02-04T09:33:24;99755.09;;;-0.29;68.64
62402;BME280;48440;51.224;22.506;2023-02-04T09:35:49;99758.94;;;-0.31;69.38
62402;BME280;48440;51.224;22.506;2023-02-04T09:38:15;99758.78;;;-0.30;69.55
62402;BME280;48440;51.224;22.506;2023-02-04T09:40:43;99763.94;;;-0.28;69.25
62402;BME280;48440;51.224;22.506;2023-02-04T09:43:21;99769.09;;;-0.27;69.44
62402;BME280;48440;51.224;22.506;2023-02-04T09:45:47;99777.38;;;-0.22;69.19
62402;BME280;48440;51.224;22.506;2023-02-04T09:48:14;99782.78;;;-0.30;69.12
62402;BME280;48440;51.224;22.506;2023-02-04T09:50:40;99789.13;;;-0.39;70.02
62402;BME280;48440;51.224;22.506;2023-02-04T09:53:06;99806.66;;;-0.45;71.73
62402;BME280;48440;51.224;22.506;2023-02-04T09:55:37;99803.50;;;-0.48;73.30
62402;BME280;48440;51.224;22.506;2023-02-04T09:58:19;99812.03;;;-0.53;72.86
62402;BME280;48440;51.224;22.506;2023-02-04T10:00:57;99810.38;;;-0.70;73.65
62402;BME280;48440;51.224;22.506;2023-02-04T10:03:23;99812.72;;;-0.75;73.62
62402;BME280;48440;51.224;22.506;2023-02-04T10:05:49;99810.72;;;-0.73;73.87
62402;BME280;48440;51.224;22.506;2023-02-04T10:08:18;99813.38;;;-0.65;73.59
62402;BME280;48440;51.224;22.506;2023-02-04T10:10:44;99815.69;;;-0.54;73.80
62402;BME280;48440;51.224;22.506;2023-02-04T10:13:20;99823.16;;;-0.41;73.23
62402;BME280;48440;51.224;22.506;2023-02-04T10:15:49;99833.28;;;-0.28;72.38
62402;BME280;48440;51.224;22.506;2023-02-04T10:18:20;99828.22;;;-0.15;70.85
62402;BME280;48440;51.224;22.506;2023-02-04T10:20:49;99828.84;;;-0.05;69.84
62402;BME280;48440;51.224;22.506;2023-02-04T10:23:16;99825.59;;;0.08;66.95
62402;BME280;48440;51.224;22.506;2023-02-04T10:25:41;99834.25;;;0.18;65.45
62402;BME280;48440;51.224;22.506;2023-02-04T10:28:07;99835.56;;;0.22;65.18
62402;BME280;48440;51.224;22.506;2023-02-04T10:30:41;99841.00;;;0.28;63.98
62402;BME280;48440;51.224;22.506;2023-02-04T10:33:20;99847.28;;;0.44;63.53
62402;BME280;48440;51.224;22.506;2023-02-04T10:35:52;99848.41;;;0.49;61.55
62402;BME280;48440;51.224;22.506;2023-02-04T10:38:18;99862.59;;;0.95;61.26
62402;BME280;48440;51.224;22.506;2023-02-04T10:40:44;99853.78;;;2.57;56.48
62402;BME280;48440;51.224;22.506;2023-02-04T10:45:44;99854.34;;;4.67;47.89
62402;BME280;48440;51.224;22.506;2023-02-04T10:48:17;99848.19;;;5.33;46.88
62402;BME280;48440;51.224;22.506;2023-02-04T10:50:45;99858.09;;;5.72;45.73
62402;BME280;48440;51.224;22.506;2023-02-04T10:53:15;99852.44;;;6.13;43.93
62402;BME280;48440;51.224;22.506;2023-02-04T10:56:00;99855.75;;;6.15;43.30
62402;BME280;48440;51.224;22.506;2023-02-04T10:58:28;99863.41;;;6.18;42.21
62402;BME280;48440;51.224;22.506;2023-02-04T11:00:54;99864.78;;;6.34;41.81
62402;BME280;48440;51.224;22.506;2023-02-04T11:03:25;99872.88;;;6.40;41.81
62402;BME280;48440;51.224;22.506;2023-02-04T11:05:52;99880.91;;;5.50;44.11
62402;BME280;48440;51.224;22.506;2023-02-04T11:08:35;99876.81;;;4.40;44.68
62402;BME280;48440;51.224;22.506;2023-02-04T11:11:04;99868.31;;;3.95;46.02
62402;BME280;48440;51.224;22.506;2023-02-04T11:18:57;99892.94;;;4.40;45.11
62402;BME280;48440;51.224;22.506;2023-02-04T11:26:51;99908.16;;;2.93;47.06
62402;BME280;48440;51.224;22.506;2023-02-04T11:29:34;99915.13;;;2.52;47.82
62402;BME280;48440;51.224;22.506;2023-02-04T11:37:41;99923.56;;;3.27;45.13
62402;BME280;48440;51.224;22.506;2023-02-04T11:43:16;99922.59;;;2.56;45.89
62402;BME280;48440;51.224;22.506;2023-02-04T11:45:42;99924.31;;;2.28;47.21
62402;BME280;48440;51.224;22.506;2023-02-04T11:48:26;99934.19;;;1.98;47.52
62402;BME280;48440;51.224;22.506;2023-02-04T11:50:59;99927.38;;;1.81;48.71
62402;BME280;48440;51.224;22.506;2023-02-04T11:53:30;99937.38;;;1.64;48.80
62402;BME280;48440;51.224;22.506;2023-02-04T11:55:56;99941.22;;;1.47;49.90
62402;BME280;48440;51.224;22.506;2023-02-04T11:58:22;99930.59;;;1.39;48.59
62402;BME280;48440;51.224;22.506;2023-02-04T12:00:52;99935.38;;;1.28;48.13
62402;BME280;48440;51.224;22.506;2023-02-04T12:03:29;99945.75;;;1.23;47.53
62402;BME280;48440;51.224;22.506;2023-02-04T12:05:55;99942.13;;;1.16;47.63
62402;BME280;48440;51.224;22.506;2023-02-04T12:11:01;99940.81;;;1.12;47.58
62402;BME280;48440;51.224;22.506;2023-02-04T12:13:28;99946.88;;;1.06;48.43
62402;BME280;48440;51.224;22.506;2023-02-04T12:16:04;99941.84;;;1.11;47.72
62402;BME280;48440;51.224;22.506;2023-02-04T12:18:30;99950.75;;;1.04;47.80
62402;BME280;48440;51.224;22.506;2023-02-04T12:20:56;99949.09;;;1.02;48.71
62402;BME280;48440;51.224;22.506;2023-02-04T12:23:23;99952.88;;;1.08;48.63
62402;BME280;48440;51.224;22.506;2023-02-04T12:25:48;99943.31;;;1.14;48.19
62402;BME280;48440;51.224;22.506;2023-02-04T12:28:14;99954.72;;;1.08;47.43
62402;BME280;48440;51.224;22.506;2023-02-04T12:30:40;99954.13;;;0.97;47.91
62402;BME280;48440;51.224;22.506;2023-02-04T12:33:05;99948.47;;;0.92;48.74
62402;BME280;48440;51.224;22.506;2023-02-04T12:35:32;99955.66;;;0.92;48.64
62402;BME280;48440;51.224;22.506;2023-02-04T12:37:57;99952.81;;;0.93;49.38
62402;BME280;48440;51.224;22.506;2023-02-04T12:40:23;99952.03;;;0.85;49.62
62402;BME280;48440;51.224;22.506;2023-02-04T12:42:48;99955.88;;;0.82;49.57
62402;BME280;48440;51.224;22.506;2023-02-04T12:45:15;99952.94;;;0.77;49.67
62402;BME280;48440;51.224;22.506;2023-02-04T12:47:42;99956.63;;;0.76;50.10
62402;BME280;48440;51.224;22.506;2023-02-04T12:50:09;99962.66;;;0.70;49.92
62402;BME280;48440;51.224;22.506;2023-02-04T12:52:35;99954.31;;;0.65;50.43
62402;BME280;48440;51.224;22.506;2023-02-04T12:55:05;99970.22;;;0.58;50.02
62402;BME280;48440;51.224;22.506;2023-02-04T12:57:32;99967.06;;;0.55;50.01
62402;BME280;48440;51.224;22.506;2023-02-04T12:59:57;99980.22;;;0.56;50.13
62402;BME280;48440;51.224;22.506;2023-02-04T13:02:27;99977.06;;;0.53;50.42
62402;BME280;48440;51.224;22.506;2023-02-04T13:04:53;99981.94;;;0.49;50.07
62402;BME280;48440;51.224;22.506;2023-02-04T13:07:18;99981.41;;;0.54;50.27
62402;BME280;48440;51.224;22.506;2023-02-04T13:09:45;100001.00;;;0.46;50.47
62402;BME280;48440;51.224;22.506;2023-02-04T13:12:10;99990.34;;;0.38;51.04
62402;BME280;48440;51.224;22.506;2023-02-04T13:14:38;99991.69;;;0.34;51.52